Time;durP1;ratioP1;P1;durP2;ratioP2;P2;SDS_P1;SDS_P2;PMS_P1;PMS_P2;Temp;Humidity;BMP_temperature;BMP_pressure;BME280_temperature;BME280_humidity;BME280_pressure;Samples;Min_cycle;Max_cycle;Signal;HPM_P1;HPM_P2
2023/01/02 00:02:18;;;;;;;2.63;1.05;;;8.90;99.90;;;;;;5000186;28;20258;-79
2023/01/02 00:04:44;;;;;;;1.48;0.88;;;8.90;99.90;;;;;;4985796;28;20053;-79
2023/01/02 00:07:09;;;;;;;1.85;1.00;;;8.80;99.90;;;;;;5019428;28;20053;-78
2023/01/02 00:09:35;;;;;;;4.13;1.25;;;8.80;99.90;;;;;;4992614;28;20025;-79
2023/01/02 00:12:01;;;;;;;3.33;1.15;;;8.80;99.90;;;;;;5014131;28;20435;-78
2023/01/02 00:14:26;;;;;;;3.50;0.82;;;8.80;99.90;;;;;;5002425;28;20040;-79
2023/01/02 00:16:52;;;;;;;4.57;0.75;;;8.80;99.90;;;;;;4990956;28;20149;-79
2023/01/02 00:19:17;;;;;;;3.03;0.90;;;8.80;99.90;;;;;;4984151;28;20034;-78
2023/01/02 00:21:43;;;;;;;3.40;1.20;;;8.70;99.90;;;;;;4985780;28;20038;-79
2023/01/02 00:24:09;;;;;;;1.35;0.77;;;8.70;99.90;;;;;;5015569;28;20022;-79
2023/01/02 00:26:34;;;;;;;3.15;1.10;;;8.60;99.90;;;;;;5016077;28;20521;-79
2023/01/02 00:29:00;;;;;;;2.28;1.25;;;8.60;99.90;;;;;;4982761;28;20504;-78
2023/01/02 00:31:26;;;;;;;2.40;0.90;;;8.60;99.90;;;;;;5009894;28;20059;-79
2023/01/02 00:33:51;;;;;;;3.20;1.00;;;8.50;99.90;;;;;;5001698;28;20045;-79
2023/01/02 00:36:17;;;;;;;5.10;1.13;;;8.50;99.90;;;;;;5015916;28;20108;-79
2023/01/02 00:38:43;;;;;;;3.63;1.20;;;8.50;99.90;;;;;;5020875;28;20108;-78
2023/01/02 00:41:09;;;;;;;4.60;1.20;;;8.40;99.90;;;;;;5014179;28;20049;-78
2023/01/02 00:43:35;;;;;;;2.47;0.80;;;8.40;99.90;;;;;;5001274;28;20092;-79
2023/01/02 00:46:01;;;;;;;2.35;0.80;;;8.40;99.90;;;;;;4992482;28;20031;-78
2023/01/02 00:48:27;;;;;;;3.67;1.13;;;8.30;99.90;;;;;;4992248;28;20373;-79
2023/01/02 00:50:52;;;;;;;5.63;1.10;;;8.30;99.90;;;;;;5008309;28;20088;-78
2023/01/02 00:53:19;;;;;;;2.25;0.75;;;8.30;99.90;;;;;;4989427;28;20429;-78
2023/01/02 00:55:45;;;;;;;2.65;0.77;;;8.20;99.90;;;;;;4985020;28;20034;-78
2023/01/02 00:58:11;;;;;;;3.92;0.90;;;8.20;99.90;;;;;;4976377;28;20038;-78
2023/01/02 01:00:37;;;;;;;7.00;1.52;;;8.20;99.90;;;;;;4999000;28;20041;-78
2023/01/02 01:03:03;;;;;;;4.45;1.00;;;8.20;99.90;;;;;;5013783;28;20080;-78
2023/01/02 01:05:29;;;;;;;2.97;0.95;;;8.10;99.90;;;;;;5018733;28;20397;-79
2023/01/02 01:07:56;;;;;;;5.20;1.00;;;8.10;99.90;;;;;;4988964;28;20081;-78
2023/01/02 01:10:22;;;;;;;4.72;1.17;;;8.10;99.90;;;;;;4976305;28;20101;-79
2023/01/02 01:12:48;;;;;;;4.55;1.38;;;8.10;99.90;;;;;;5005578;28;20064;-79
2023/01/02 01:15:14;;;;;;;3.22;0.95;;;8.10;99.90;;;;;;5019395;28;20269;-78
2023/01/02 01:17:39;;;;;;;3.63;1.15;;;8.00;99.90;;;;;;5015777;28;20034;-78
2023/01/02 01:20:06;;;;;;;4.82;1.60;;;8.10;99.90;;;;;;5002579;28;20631;-78
2023/01/02 01:22:31;;;;;;;3.40;1.38;;;8.00;99.90;;;;;;5007980;28;20060;-78
2023/01/02 01:24:57;;;;;;;6.75;1.65;;;8.00;99.90;;;;;;4995814;28;20430;-78
2023/01/02 01:27:23;;;;;;;6.95;1.35;;;7.90;99.90;;;;;;4987117;28;20037;-77
2023/01/02 01:29:48;;;;;;;3.67;1.30;;;7.90;99.90;;;;;;4999744;28;20041;-78
2023/01/02 01:32:14;;;;;;;6.43;1.20;;;8.00;99.90;;;;;;5016279;28;20534;-78
2023/01/02 01:34:39;;;;;;;4.40;1.33;;;7.90;99.90;;;;;;4980229;28;20069;-78
2023/01/02 01:37:05;;;;;;;4.72;1.05;;;7.90;99.90;;;;;;4990779;28;20036;-78
2023/01/02 01:39:30;;;;;;;5.30;1.00;;;8.00;99.90;;;;;;5000454;28;20029;-78
2023/01/02 01:42:00;;;;;;;3.70;0.70;;;7.90;99.90;;;;;;4987638;28;20030;-78
2023/01/02 01:44:44;;;;;;;2.47;1.00;;;8.00;99.90;;;;;;5007387;28;20520;-78
2023/01/02 01:47:18;;;;;;;3.13;0.93;;;8.00;99.90;;;;;;5002126;28;20116;-79
2023/01/02 01:49:45;;;;;;;5.13;1.00;;;7.90;99.90;;;;;;4993872;28;20072;-78
2023/01/02 01:52:17;;;;;;;5.32;1.10;;;7.90;99.90;;;;;;4974496;28;20038;-78
2023/01/02 01:54:45;;;;;;;;;;;7.90;99.90;;;;;;4981383;28;20426;-78
2023/01/02 01:57:24;;;;;;;4.25;1.08;;;7.80;99.90;;;;;;4993305;28;20442;-78
2023/01/02 01:59:51;;;;;;;3.75;0.82;;;7.80;99.90;;;;;;4993299;28;20022;-78
2023/01/02 02:02:17;;;;;;;4.88;1.00;;;7.80;99.90;;;;;;5001833;28;20137;-78
2023/01/02 02:04:44;;;;;;;5.72;1.02;;;7.80;99.90;;;;;;5017736;28;20066;-78
2023/01/02 02:07:10;;;;;;;2.45;0.82;;;7.80;99.90;;;;;;5023053;28;20090;-78
2023/01/02 02:10:04;;;;;;;3.05;0.80;;;7.70;99.90;;;;;;5005244;28;20026;-78
2023/01/02 02:12:31;;;;;;;0.82;0.70;;;7.60;99.90;;;;;;4978176;28;20037;-78
2023/01/02 02:14:57;;;;;;;5.93;0.85;;;7.60;99.90;;;;;;5006996;28;20414;-78
2023/01/02 02:17:41;;;;;;;3.63;0.60;;;7.50;99.90;;;;;;5017760;28;20141;-79
2023/01/02 02:20:29;;;;;;;3.17;0.70;;;7.50;99.90;;;;;;5020325;28;20539;-79
2023/01/02 02:23:21;;;;;;;1.67;0.60;;;7.30;99.90;;;;;;5006649;28;20050;-79
2023/01/02 02:26:01;;;;;;;3.33;0.60;;;7.20;99.90;;;;;;4986965;28;20029;-79
2023/01/02 02:29:11;;;;;;;5.78;1.08;;;7.10;99.90;;;;;;5022462;28;20123;-79
2023/01/02 02:31:58;;;;;;;5.53;0.80;;;7.00;99.90;;;;;;4910132;29;20511;-80
2023/01/02 02:34:30;;;;;;;4.60;1.00;;;7.00;99.90;;;;;;4997283;28;20110;-79
2023/01/02 02:37:07;;;;;;;5.53;1.00;;;6.90;99.90;;;;;;5017136;28;20104;-80
2023/01/02 02:39:45;;;;;;;3.55;1.00;;;6.90;99.90;;;;;;5003927;28;20149;-79
2023/01/02 02:42:24;;;;;;;1.65;0.85;;;6.90;99.90;;;;;;5009146;28;20034;-79
2023/01/02 02:45:09;;;;;;;6.75;1.20;;;6.90;99.90;;;;;;5020751;28;20671;-79
2023/01/02 02:47:49;;;;;;;4.60;1.00;;;6.90;99.90;;;;;;5011177;28;20042;-79
2023/01/02 02:50:28;;;;;;;4.68;1.40;;;6.90;99.90;;;;;;5004509;28;20029;-79
2023/01/02 02:53:08;;;;;;;3.45;0.90;;;7.00;99.90;;;;;;5015663;28;20029;-79
2023/01/02 02:55:42;;;;;;;3.92;1.15;;;7.00;99.90;;;;;;4997460;28;20118;-79
2023/01/02 02:58:08;;;;;;;5.63;1.40;;;7.00;99.90;;;;;;5027292;28;20032;-79
2023/01/02 03:00:34;;;;;;;2.58;1.23;;;7.10;99.90;;;;;;4999685;28;20038;-79
2023/01/02 03:02:59;;;;;;;5.13;1.75;;;7.10;99.90;;;;;;5013421;28;20133;-79
2023/01/02 03:05:28;;;;;;;3.08;1.30;;;7.20;99.90;;;;;;5014924;28;20055;-79
2023/01/02 03:07:59;;;;;;;3.47;1.27;;;7.20;99.90;;;;;;5006201;28;20080;-79
2023/01/02 03:10:32;;;;;;;6.22;1.58;;;7.20;99.90;;;;;;5011856;28;20072;-79
2023/01/02 03:13:06;;;;;;;6.00;1.17;;;7.20;99.90;;;;;;4989833;28;20588;-79
2023/01/02 03:15:47;;;;;;;3.35;1.20;;;7.20;99.90;;;;;;5009741;28;20363;-80
2023/01/02 03:18:35;;;;;;;4.43;1.40;;;7.20;99.90;;;;;;4985752;28;20113;-79
2023/01/02 03:21:09;;;;;;;3.92;1.08;;;7.20;99.90;;;;;;4985369;28;20034;-78
2023/01/02 03:23:46;;;;;;;4.28;1.17;;;7.20;99.90;;;;;;5013319;28;20048;-79
2023/01/02 03:26:24;;;;;;;5.05;1.27;;;7.10;99.90;;;;;;5005804;28;20030;-78
2023/01/02 03:28:53;;;;;;;5.63;1.60;;;7.10;99.90;;;;;;5005332;28;20063;-79
2023/01/02 03:31:21;;;;;;;3.90;1.58;;;7.20;99.90;;;;;;5016812;28;20560;-79
2023/01/02 03:33:53;;;;;;;7.53;1.60;;;7.20;99.90;;;;;;4997243;28;20029;-78
2023/01/02 03:36:26;;;;;;;12.05;1.83;;;7.30;99.90;;;;;;5008389;28;20451;-78
2023/01/02 03:39:16;;;;;;;5.00;1.58;;;7.40;99.90;;;;;;4989612;28;20030;-79
2023/01/02 03:42:05;;;;;;;7.95;1.52;;;7.50;99.90;;;;;;4996796;28;20152;-79
2023/01/02 03:44:41;;;;;;;8.13;1.60;;;7.60;99.90;;;;;;4986988;28;20547;-79
2023/01/02 03:47:38;;;;;;;6.30;1.60;;;7.50;99.90;;;;;;5023109;28;20037;-79
2023/01/02 03:50:14;;;;;;;4.20;1.33;;;7.60;99.90;;;;;;4993701;28;20033;-78
2023/01/02 03:52:39;;;;;;;5.20;1.30;;;7.60;99.90;;;;;;5014395;28;20040;-78
2023/01/02 03:55:06;;;;;;;7.75;1.35;;;7.60;99.90;;;;;;5002683;28;20471;-78
2023/01/02 03:57:37;;;;;;;4.55;0.82;;;7.60;99.90;;;;;;5009497;28;20029;-79
2023/01/02 04:00:08;;;;;;;3.85;0.80;;;7.60;99.90;;;;;;5004366;28;20045;-78
2023/01/02 04:02:43;;;;;;;6.70;1.10;;;7.60;99.90;;;;;;4994777;28;20536;-79
2023/01/02 04:05:16;;;;;;;5.80;0.90;;;7.60;99.90;;;;;;5440223;22;20068;-86
2023/01/02 04:07:53;;;;;;;5.70;1.00;;;7.70;99.90;;;;;;4989759;28;20094;-86
2023/01/02 04:10:20;;;;;;;6.00;1.10;;;7.80;99.90;;;;;;4990249;28;20575;-87
2023/01/02 04:12:51;;;;;;;4.07;0.73;;;7.80;99.90;;;;;;4972680;28;20041;-87
2023/01/02 04:15:21;;;;;;;4.28;0.90;;;7.90;99.90;;;;;;4975622;28;20234;-87
2023/01/02 04:17:52;;;;;;;2.97;0.70;;;7.90;99.90;;;;;;4994121;28;20468;-87
2023/01/02 04:20:26;;;;;;;4.38;0.70;;;7.90;99.90;;;;;;5003170;28;20049;-85
2023/01/02 04:23:01;;;;;;;3.22;0.60;;;8.00;99.90;;;;;;5018113;28;20191;-86
2023/01/02 04:25:38;;;;;;;4.50;0.70;;;8.00;99.90;;;;;;4991163;28;20064;-86
2023/01/02 04:28:11;;;;;;;4.85;1.30;;;8.10;99.90;;;;;;5011595;28;20100;-87
2023/01/02 04:30:41;;;;;;;5.68;0.88;;;8.10;99.90;;;;;;5001707;28;20119;-85
2023/01/02 04:33:09;;;;;;;5.50;0.90;;;8.10;99.90;;;;;;5003936;28;20030;-86
2023/01/02 04:35:35;;;;;;;3.67;0.80;;;8.20;99.90;;;;;;5011758;28;20068;-86
2023/01/02 04:38:09;;;;;;;7.20;1.08;;;8.10;99.90;;;;;;5011490;28;20061;-85
2023/01/02 04:40:38;;;;;;;7.70;1.77;;;8.20;99.90;;;;;;4981568;28;20042;-87
2023/01/02 04:43:12;;;;;;;8.82;1.20;;;8.20;99.90;;;;;;4988505;28;20031;-85
2023/01/02 04:45:38;;;;;;;7.28;0.93;;;8.20;99.90;;;;;;4984489;28;20472;-86
2023/01/02 04:48:04;;;;;;;3.50;0.60;;;8.30;99.90;;;;;;4997782;28;20096;-87
2023/01/02 04:50:29;;;;;;;5.55;0.65;;;8.30;99.90;;;;;;4987169;28;20144;-86
2023/01/02 04:52:55;;;;;;;4.78;0.82;;;8.40;99.90;;;;;;5021063;28;20482;-87
2023/01/02 04:55:20;;;;;;;2.20;0.50;;;8.30;99.90;;;;;;5006287;28;20089;-86
2023/01/02 04:57:46;;;;;;;7.93;0.88;;;8.40;99.90;;;;;;4984209;28;20132;-86
2023/01/02 05:00:12;;;;;;;4.65;1.05;;;8.30;99.90;;;;;;5001422;28;20030;-85
2023/01/02 05:02:39;;;;;;;2.22;0.57;;;8.30;99.90;;;;;;4999692;28;20041;-86
2023/01/02 05:05:06;;;;;;;8.43;1.00;;;8.40;99.90;;;;;;5003702;28;20037;-87
2023/01/02 05:07:33;;;;;;;5.40;0.90;;;8.40;99.90;;;;;;5006949;28;20034;-87
2023/01/02 05:09:58;;;;;;;4.18;0.82;;;8.40;99.90;;;;;;4993664;28;20061;-86
2023/01/02 05:12:24;;;;;;;6.80;0.95;;;8.40;99.90;;;;;;4983556;28;20076;-87
2023/01/02 05:14:50;;;;;;;5.25;1.05;;;8.40;99.90;;;;;;5013979;28;20145;-86
2023/01/02 05:17:15;;;;;;;6.75;1.25;;;8.50;99.90;;;;;;4989321;28;20048;-85
2023/01/02 05:19:41;;;;;;;9.63;1.02;;;8.60;99.90;;;;;;4996200;28;20246;-87
2023/01/02 05:24:54;;;;;;;6.10;0.75;;;8.60;99.90;;;;;;5006314;28;20833;-87
2023/01/02 05:27:19;;;;;;;4.00;0.80;;;8.60;99.90;;;;;;4996973;28;20069;-86
2023/01/02 05:29:45;;;;;;;4.60;0.77;;;8.60;99.90;;;;;;5023472;28;20276;-86
2023/01/02 05:32:10;;;;;;;3.13;0.80;;;8.60;99.90;;;;;;4984959;28;20026;-87
2023/01/02 05:34:36;;;;;;;3.38;0.70;;;8.60;99.90;;;;;;4982321;28;20048;-86
2023/01/02 05:37:02;;;;;;;3.13;0.70;;;8.50;99.90;;;;;;4987787;28;20125;-87
2023/01/02 05:39:27;;;;;;;4.80;0.73;;;8.50;99.90;;;;;;4983540;28;20522;-86
2023/01/02 05:41:53;;;;;;;4.95;0.68;;;8.50;99.90;;;;;;4987462;28;20046;-85
2023/01/02 05:44:18;;;;;;;7.82;0.70;;;8.50;99.90;;;;;;4987149;28;20026;-87
2023/01/02 05:46:44;;;;;;;5.88;0.93;;;8.50;99.90;;;;;;4998731;28;20033;-85
2023/01/02 05:49:10;;;;;;;7.63;0.70;;;8.50;99.90;;;;;;5002353;28;20045;-87
2023/01/02 05:51:36;;;;;;;6.03;0.63;;;8.50;99.90;;;;;;5007888;28;20300;-86
2023/01/02 05:54:02;;;;;;;4.80;0.60;;;8.50;99.90;;;;;;5007648;28;20032;-86
2023/01/02 05:56:28;;;;;;;5.85;0.70;;;8.60;99.90;;;;;;4997540;28;20450;-86
2023/01/02 05:58:54;;;;;;;5.43;0.55;;;8.60;99.90;;;;;;4983710;28;20151;-86
2023/01/02 06:01:22;;;;;;;6.22;0.63;;;8.60;99.90;;;;;;5006653;28;20068;-87
2023/01/02 06:03:53;;;;;;;4.43;0.55;;;8.60;99.90;;;;;;5014922;28;20101;-86
2023/01/02 06:06:21;;;;;;;2.78;0.43;;;8.70;99.90;;;;;;5005657;28;20060;-87
2023/01/02 06:08:47;;;;;;;3.80;0.77;;;8.70;99.90;;;;;;4996762;28;20056;-87
2023/01/02 06:11:13;;;;;;;3.47;0.50;;;8.60;99.90;;;;;;5011720;28;20341;-86
2023/01/02 06:13:38;;;;;;;10.40;1.17;;;8.50;99.90;;;;;;5021654;28;20097;-87
2023/01/02 06:16:06;;;;;;;3.83;0.55;;;8.50;99.90;;;;;;4999201;28;20029;-88
2023/01/02 06:18:33;;;;;;;5.00;0.70;;;8.50;99.90;;;;;;5013415;28;20033;-87
2023/01/02 06:21:00;;;;;;;4.38;0.63;;;8.50;99.90;;;;;;5023014;28;20041;-85
2023/01/02 06:23:26;;;;;;;4.13;0.77;;;8.60;99.90;;;;;;5008744;28;20065;-88
2023/01/02 06:25:52;;;;;;;8.55;0.82;;;8.60;99.90;;;;;;5012718;28;20060;-89
2023/01/02 06:28:18;;;;;;;6.53;0.98;;;8.50;99.90;;;;;;5027784;28;20113;-88
2023/01/02 06:30:43;;;;;;;13.70;1.40;;;8.50;99.90;;;;;;5020359;28;20048;-87
2023/01/02 06:33:09;;;;;;;4.50;0.70;;;8.40;99.90;;;;;;5000641;28;20436;-86
2023/01/02 06:35:34;;;;;;;4.65;0.60;;;8.30;99.90;;;;;;4977964;28;20088;-86
2023/01/02 06:38:00;;;;;;;7.90;1.00;;;8.20;99.90;;;;;;5003932;28;20093;-86
2023/01/02 06:40:26;;;;;;;6.28;0.50;;;8.20;99.90;;;;;;4991777;28;20046;-87
2023/01/02 06:42:51;;;;;;;4.10;0.75;;;8.20;99.90;;;;;;4991673;28;20029;-86
2023/01/02 06:45:17;;;;;;;3.38;0.70;;;8.20;99.90;;;;;;5003289;28;20429;-86
2023/01/02 06:47:42;;;;;;;2.72;0.60;;;8.20;99.90;;;;;;5029394;28;20033;-86
2023/01/02 06:50:08;;;;;;;6.78;1.33;;;8.10;99.90;;;;;;4999005;28;20033;-87
2023/01/02 06:52:34;;;;;;;6.28;0.70;;;8.10;99.90;;;;;;5011751;28;20066;-87
2023/01/02 06:55:00;;;;;;;7.38;0.70;;;8.10;99.90;;;;;;5029580;28;20026;-86
2023/01/02 06:57:29;;;;;;;1.67;0.60;;;8.00;99.90;;;;;;5009070;28;20034;-87
2023/01/02 06:59:55;;;;;;;5.63;0.70;;;7.90;99.90;;;;;;4993650;28;20029;-86
2023/01/02 07:02:20;;;;;;;8.82;0.73;;;7.90;99.90;;;;;;5013221;28;20033;-89
2023/01/02 07:04:46;;;;;;;3.97;0.60;;;7.90;99.90;;;;;;4981208;28;20121;-86
2023/01/02 07:07:12;;;;;;;10.48;4.20;;;7.90;99.90;;;;;;4978376;28;20089;-86
2023/01/02 07:09:37;;;;;;;6.60;1.35;;;7.90;99.90;;;;;;4982710;28;20162;-87
2023/01/02 07:12:03;;;;;;;2.42;0.63;;;7.90;99.90;;;;;;4976187;28;20416;-88
2023/01/02 07:14:28;;;;;;;5.18;0.50;;;7.90;99.90;;;;;;4983377;28;20077;-88
2023/01/02 07:16:54;;;;;;;4.38;0.77;;;7.90;99.90;;;;;;5000381;28;20371;-87
2023/01/02 07:19:20;;;;;;;4.60;0.80;;;7.90;99.90;;;;;;5001051;28;20034;-88
2023/01/02 07:21:45;;;;;;;6.55;0.70;;;7.90;99.90;;;;;;4998282;28;20509;-87
2023/01/02 07:24:14;;;;;;;11.95;5.25;;;7.90;99.90;;;;;;4985772;28;20054;-87
2023/01/02 07:26:40;;;;;;;3.30;0.73;;;7.90;99.90;;;;;;4980948;28;20398;-87
2023/01/02 07:29:06;;;;;;;2.97;0.40;;;7.90;99.90;;;;;;4997340;28;20037;-88
2023/01/02 07:31:32;;;;;;;4.57;0.73;;;7.90;99.90;;;;;;4995633;28;20030;-88
2023/01/02 07:33:58;;;;;;;3.65;0.52;;;7.90;99.90;;;;;;4996664;28;20030;-88
2023/01/02 07:36:24;;;;;;;1.70;0.50;;;7.90;99.90;;;;;;4986944;28;20211;-88
2023/01/02 07:38:54;;;;;;;2.90;0.60;;;7.90;99.90;;;;;;4999878;28;20090;-86
2023/01/02 07:41:23;;;;;;;4.50;0.57;;;7.90;99.90;;;;;;4980392;28;20149;-87
2023/01/02 07:43:49;;;;;;;4.10;0.93;;;7.90;99.90;;;;;;4994212;28;20114;-86
2023/01/02 07:46:16;;;;;;;4.00;0.75;;;7.90;99.90;;;;;;4991749;28;20042;-87
2023/01/02 07:48:43;;;;;;;8.18;2.00;;;7.80;99.90;;;;;;4999067;28;20038;-88
2023/01/02 07:51:09;;;;;;;3.25;0.43;;;7.90;99.90;;;;;;4998081;28;20022;-88
2023/01/02 07:53:37;;;;;;;7.82;0.90;;;7.80;99.90;;;;;;4992667;28;20095;-87
2023/01/02 07:56:03;;;;;;;10.10;0.93;;;7.90;99.90;;;;;;4996647;28;20110;-87
2023/01/02 07:58:29;;;;;;;3.50;0.50;;;7.90;99.90;;;;;;4982370;28;20158;-87
2023/01/02 08:00:55;;;;;;;5.13;0.60;;;8.00;99.90;;;;;;4997509;28;20394;-86
2023/01/02 08:03:21;;;;;;;3.10;0.70;;;8.00;99.90;;;;;;4996181;28;20023;-88
2023/01/02 08:05:47;;;;;;;6.97;1.00;;;8.00;99.90;;;;;;4975876;28;20084;-89
2023/01/02 08:08:13;;;;;;;9.63;3.90;;;8.10;99.90;;;;;;5011861;28;20005;-88
2023/01/02 08:10:38;;;;;;;9.95;2.72;;;8.10;99.90;;;;;;5013725;28;20044;-88
2023/01/02 08:13:05;;;;;;;5.47;0.70;;;8.10;99.90;;;;;;5005970;28;20039;-87
2023/01/02 08:15:31;;;;;;;4.20;0.60;;;8.00;99.90;;;;;;5016559;28;20033;-90
2023/01/02 08:17:57;;;;;;;4.53;0.80;;;8.00;99.90;;;;;;4997346;28;20069;-88
2023/01/02 08:20:24;;;;;;;6.97;0.60;;;8.00;99.90;;;;;;5002952;28;20110;-88
2023/01/02 08:22:49;;;;;;;6.35;1.23;;;8.00;99.90;;;;;;5020951;28;20034;-89
2023/01/02 08:25:15;;;;;;;11.05;4.50;;;8.00;99.90;;;;;;5002179;28;20022;-89
2023/01/02 08:27:41;;;;;;;4.97;1.30;;;8.00;99.90;;;;;;5000858;28;20041;-89
2023/01/02 08:30:07;;;;;;;5.20;1.00;;;8.10;99.90;;;;;;5002197;28;20034;-89
2023/01/02 08:32:37;;;;;;;6.00;1.67;;;8.10;99.90;;;;;;5021340;28;20120;-88
2023/01/02 08:35:06;;;;;;;10.60;1.60;;;8.20;99.90;;;;;;5023392;28;20105;-90
2023/01/02 08:37:32;;;;;;;5.75;1.45;;;8.30;99.90;;;;;;5006952;28;20045;-88
2023/01/02 08:39:57;;;;;;;4.97;0.88;;;8.40;99.90;;;;;;5014965;28;20037;-89
2023/01/02 08:42:23;;;;;;;3.08;0.95;;;8.50;99.90;;;;;;5021879;28;20513;-88
2023/01/02 08:44:49;;;;;;;3.67;0.75;;;8.60;99.90;;;;;;5011389;28;20051;-89
2023/01/02 08:47:15;;;;;;;10.30;2.72;;;8.60;99.90;;;;;;5011317;28;20026;-90
2023/01/02 08:49:40;;;;;;;14.75;2.13;;;8.70;99.90;;;;;;5006053;28;20028;-89
2023/01/02 08:52:06;;;;;;;6.47;1.05;;;8.70;99.90;;;;;;5028025;28;20091;-88
2023/01/02 08:54:31;;;;;;;9.60;1.35;;;8.80;99.90;;;;;;5029782;28;20117;-90
2023/01/02 08:56:57;;;;;;;8.30;0.75;;;8.80;99.90;;;;;;5026554;28;20268;-91
2023/01/02 08:59:24;;;;;;;6.20;2.20;;;8.90;99.90;;;;;;5014313;28;20508;-89
2023/01/02 09:01:50;;;;;;;7.95;1.30;;;9.00;99.90;;;;;;4986403;28;20109;-89
2023/01/02 09:04:16;;;;;;;7.97;1.02;;;9.10;99.90;;;;;;5007376;28;20070;-89
2023/01/02 09:06:43;;;;;;;6.25;2.05;;;9.30;99.90;;;;;;4990178;28;20110;-91
2023/01/02 09:09:09;;;;;;;6.85;1.55;;;9.50;99.90;;;;;;5003129;28;20148;-89
2023/01/02 09:11:38;;;;;;;3.10;0.73;;;9.70;99.90;;;;;;4991190;28;20196;-88
2023/01/02 09:14:04;;;;;;;5.65;0.70;;;10.00;99.90;;;;;;4991301;28;20517;-89
2023/01/02 09:16:30;;;;;;;4.35;0.98;;;10.60;99.90;;;;;;5017619;28;20118;-89
2023/01/02 09:18:58;;;;;;;8.00;0.70;;;11.30;99.90;;;;;;4999611;28;20129;-88
2023/01/02 09:21:24;;;;;;;4.80;0.85;;;12.00;99.90;;;;;;5028070;28;20057;-89
2023/01/02 09:23:49;;;;;;;5.22;0.75;;;12.30;99.90;;;;;;4996164;28;20129;-88
2023/01/02 09:26:15;;;;;;;5.13;0.93;;;12.30;99.90;;;;;;5022643;28;20033;-89
2023/01/02 09:28:41;;;;;;;6.88;0.80;;;12.30;99.90;;;;;;5014345;28;20119;-91
2023/01/02 09:31:09;;;;;;;4.45;1.13;;;12.20;99.90;;;;;;5000864;28;20029;-90
2023/01/02 09:33:35;;;;;;;5.32;0.73;;;11.90;99.90;;;;;;5028286;28;20152;-91
2023/01/02 09:36:03;;;;;;;5.60;0.80;;;11.70;99.90;;;;;;4998255;28;20042;-92
2023/01/02 09:38:29;;;;;;;4.18;0.80;;;11.30;99.90;;;;;;4994636;28;20040;-91
2023/01/02 09:40:56;;;;;;;4.07;0.80;;;11.00;99.90;;;;;;4990204;28;20393;-90
2023/01/02 09:43:39;;;;;;;4.30;0.70;;;10.80;99.90;;;;;;5007510;28;20079;-91
2023/01/02 09:46:12;;;;;;;4.07;0.57;;;10.70;99.90;;;;;;5007702;28;20034;-87
2023/01/02 09:48:38;;;;;;;4.97;0.80;;;10.60;99.90;;;;;;4989859;28;20041;-92
2023/01/02 09:51:04;;;;;;;6.10;0.70;;;10.40;99.90;;;;;;5014461;28;20025;-92
2023/01/02 09:53:32;;;;;;;9.75;0.70;;;10.30;99.90;;;;;;5012237;28;20414;-91
2023/01/02 09:56:17;;;;;;;8.43;0.73;;;10.00;99.90;;;;;;5012520;28;20249;-87
2023/01/02 09:59:00;;;;;;;5.80;0.90;;;9.90;99.90;;;;;;5014157;28;20310;-91
2023/01/02 10:01:37;;;;;;;5.45;0.75;;;9.90;99.90;;;;;;4999964;28;20038;-90
2023/01/02 10:04:03;;;;;;;6.57;0.70;;;9.80;99.90;;;;;;5022101;28;20585;-89
2023/01/02 10:06:41;;;;;;;5.38;0.88;;;9.70;99.90;;;;;;5014920;28;20042;-90
2023/01/02 10:09:11;;;;;;;4.00;0.93;;;10.10;99.90;;;;;;5037590;28;20037;-91
2023/01/02 10:11:57;;;;;;;6.55;1.02;;;10.50;99.90;;;;;;5012728;28;20033;-92
2023/01/02 10:14:32;;;;;;;6.38;0.63;;;11.10;99.90;;;;;;5002425;28;20096;-91
2023/01/02 10:16:59;;;;;;;5.75;0.93;;;11.90;99.90;;;;;;5015708;28;20034;-89
2023/01/02 10:20:03;;;;;;;6.05;0.70;;;12.80;99.90;;;;;;5022101;28;20030;-91
2023/01/02 10:22:44;;;;;;;5.82;0.70;;;13.10;99.90;;;;;;4935196;29;20078;-91
2023/01/02 10:25:32;;;;;;;3.83;0.90;;;13.20;99.90;;;;;;5006207;28;20046;-90
2023/01/02 10:28:19;;;;;;;4.75;0.63;;;13.00;99.90;;;;;;4993967;28;20033;-89
2023/01/02 10:31:16;;;;;;;5.30;0.73;;;12.90;99.90;;;;;;4995200;28;20029;-90
2023/01/02 10:33:44;;;;;;;2.70;0.75;;;12.80;99.90;;;;;;5012544;28;20125;-90
2023/01/02 10:36:28;;;;;;;4.90;0.98;;;12.70;99.90;;;;;;4997783;28;20630;-91
2023/01/02 10:38:59;;;;;;;2.95;0.73;;;12.80;99.90;;;;;;5009867;28;20060;-91
2023/01/02 10:41:27;;;;;;;6.10;1.08;;;12.70;99.90;;;;;;4993731;28;20564;-89
2023/01/02 10:43:58;;;;;;;3.15;0.82;;;12.70;99.90;;;;;;4989963;28;20049;-91
2023/01/02 10:46:36;;;;;;;3.15;0.80;;;12.60;99.90;;;;;;4990840;28;20061;-91
2023/01/02 10:49:03;;;;;;;6.55;1.00;;;12.70;99.90;;;;;;5032173;28;20042;-90
2023/01/02 10:51:29;;;;;;;4.53;0.70;;;12.60;99.90;;;;;;5007858;28;20041;-90
2023/01/02 10:54:13;;;;;;;4.35;0.88;;;12.80;99.90;;;;;;4992158;28;20065;-89
2023/01/02 10:56:40;;;;;;;10.65;1.00;;;13.00;99.80;;;;;;5014565;28;20491;-89
2023/01/02 10:59:27;;;;;;;4.75;1.73;;;13.00;99.60;;;;;;5015568;28;20021;-90
2023/01/02 11:01:58;;;;;;;4.78;0.80;;;13.20;99.60;;;;;;5000521;28;20031;-89
2023/01/02 11:04:29;;;;;;;6.28;0.80;;;13.30;97.80;;;;;;5021423;28;20049;-90
2023/01/02 11:07:02;;;;;;;3.95;0.85;;;13.50;94.50;;;;;;5005173;28;20053;-92
2023/01/02 11:09:34;;;;;;;6.80;0.80;;;13.80;91.50;;;;;;5023362;28;20044;-91
2023/01/02 11:12:06;;;;;;;3.22;0.77;;;13.80;92.40;;;;;;5034746;28;20053;-90
2023/01/02 11:14:33;;;;;;;5.63;1.00;;;13.80;94.60;;;;;;5002754;28;20033;-91
2023/01/02 11:17:20;;;;;;;4.18;0.93;;;13.80;92.10;;;;;;5020775;28;20121;-92
2023/01/02 11:19:48;;;;;;;4.25;0.80;;;14.30;91.10;;;;;;5022477;28;20112;-91
2023/01/02 11:22:17;;;;;;;8.02;1.15;;;14.50;83.10;;;;;;5021424;28;20029;-91
2023/01/02 11:24:58;;;;;;;2.83;0.82;;;14.70;82.40;;;;;;5014774;28;20046;-91
2023/01/02 11:27:33;;;;;;;5.93;1.10;;;14.50;81.10;;;;;;5042186;28;20038;-92
2023/01/02 11:30:00;;;;;;;3.15;0.80;;;14.50;85.20;;;;;;5006151;28;20041;-92
2023/01/02 11:32:34;;;;;;;2.42;1.30;;;14.50;84.30;;;;;;5018636;28;20026;-91
2023/01/02 11:35:01;;;;;;;2.22;0.80;;;14.40;83.10;;;;;;5020689;28;20056;-92
2023/01/02 11:37:27;;;;;;;5.85;1.00;;;14.30;88.50;;;;;;5019078;28;20021;-90
2023/01/02 11:40:02;;;;;;;3.45;0.90;;;14.00;87.50;;;;;;5008073;28;20140;-91
2023/01/02 11:45:17;;;;;;;5.97;0.80;;;13.80;87.90;;;;;;5012993;28;20036;-91
2023/01/02 11:47:56;;;;;;;1.95;0.70;;;13.60;89.80;;;;;;4987006;28;20025;-92
2023/01/02 11:50:33;;;;;;;2.67;0.80;;;13.30;92.00;;;;;;5007079;28;20041;-91
2023/01/02 11:53:13;;;;;;;4.05;1.08;;;13.40;86.10;;;;;;5010537;28;20024;-92
2023/01/02 11:55:48;;;;;;;3.42;0.80;;;13.60;91.70;;;;;;5032490;28;20049;-92
2023/01/02 11:58:29;;;;;;;5.50;1.00;;;13.70;93.30;;;;;;5015094;28;20041;-92
2023/01/02 12:01:27;;;;;;;2.00;0.75;;;14.00;89.90;;;;;;5019429;28;20101;-93
2023/01/02 12:03:54;;;;;;;3.53;0.93;;;14.20;87.90;;;;;;5016995;28;20068;-92
2023/01/02 12:06:31;;;;;;;2.90;0.88;;;14.50;83.10;;;;;;5001807;28;20085;-92
2023/01/02 12:09:02;;;;;;;4.70;0.90;;;14.30;86.40;;;;;;4991250;28;20083;-91
2023/01/02 12:11:43;;;;;;;2.30;0.85;;;13.90;80.10;;;;;;4987855;28;20097;-93
2023/01/02 12:14:13;;;;;;;4.32;1.05;;;13.70;91.20;;;;;;4986113;28;20035;-91
2023/01/02 12:16:42;;;;;;;3.00;0.60;;;14.00;86.90;;;;;;5009446;28;20444;-92
2023/01/02 12:19:29;;;;;;;2.72;0.90;;;13.60;90.00;;;;;;4990775;28;20030;-89
2023/01/02 12:22:15;;;;;;;3.13;0.85;;;13.60;88.70;;;;;;4985267;28;20050;-90
2023/01/02 12:25:02;;;;;;;3.55;0.73;;;13.60;84.90;;;;;;4963244;28;20046;-90
2023/01/02 12:27:47;;;;;;;3.00;1.10;;;13.40;88.80;;;;;;4969954;28;20529;-91
2023/01/02 12:30:18;;;;;;;2.78;0.70;;;13.50;89.40;;;;;;4985460;28;20057;-92
2023/01/02 12:33:03;;;;;;;;;;;13.70;90.10;;;;;;4978690;28;20515;-90
2023/01/02 12:35:53;;;;;;;2.75;1.00;;;13.70;92.30;;;;;;4980754;28;19914;-90
2023/01/02 12:38:50;;;;;;;2.50;0.88;;;14.00;85.10;;;;;;4972429;28;20030;-90
2023/01/02 12:41:31;;;;;;;4.00;1.05;;;14.20;85.40;;;;;;4975700;28;20529;-91
2023/01/02 12:44:15;;;;;;;5.07;1.30;;;13.90;85.80;;;;;;4968818;28;20305;-91
2023/01/02 12:47:02;;;;;;;2.05;1.00;;;13.40;87.50;;;;;;4961652;28;20030;-90
2023/01/02 12:49:39;;;;;;;4.05;0.85;;;13.70;90.80;;;;;;4967038;28;20736;-91
2023/01/02 12:52:33;;;;;;;3.10;0.88;;;14.00;85.00;;;;;;4959074;28;20023;-92
2023/01/02 12:55:16;;;;;;;2.10;0.90;;;13.90;82.80;;;;;;4975023;28;20069;-90
2023/01/02 12:57:56;;;;;;;3.22;0.80;;;13.80;86.60;;;;;;4984054;28;20034;-90
2023/01/02 13:00:41;;;;;;;4.15;0.82;;;13.40;89.10;;;;;;4979835;28;20036;-91
2023/01/02 13:03:09;;;;;;;1.67;0.80;;;13.10;90.50;;;;;;4981299;28;20034;-91
2023/01/02 13:05:47;;;;;;;5.68;1.25;;;12.70;94.90;;;;;;4966007;28;20057;-91
2023/01/02 13:08:13;;;;;;;3.63;1.42;;;12.40;96.80;;;;;;4975583;28;20030;-91
2023/01/02 13:10:39;;;;;;;5.45;1.20;;;12.30;99.90;;;;;;4978090;28;20039;-91
2023/01/02 13:13:04;;;;;;;5.13;0.98;;;12.50;99.90;;;;;;4974214;28;20065;-90
2023/01/02 13:15:35;;;;;;;4.68;1.20;;;12.70;99.90;;;;;;4963458;28;20380;-92
2023/01/02 13:18:43;;;;;;;2.90;1.30;;;12.90;94.30;;;;;;4962326;28;20455;-92
2023/01/02 13:21:43;;;;;;;4.43;1.10;;;13.40;97.00;;;;;;4942067;28;20142;-92